Terminal Aerodrome Forecast
Issued by NWS

Home | Current Version | Previous Version | Text Only | Print | Product List | Glossary On
Versions: 1 2 3 4 5 6 7 8 9 10 11 12 13
749
FTUS42 KMLB 180520
TAFLEE
TAF
KLEE 180520Z 1806/1906 03003KT P6SM SKC
     FM181600 17006KT P6SM SCT045
     FM181800 21006KT P6SM SCT050
     FM182300 25005KT P6SM SKC=

USA.gov is the U.S. government's official web portal to all federal, state and local government web resources and services.